Time;durP1;ratioP1;P1;durP2;ratioP2;P2;SDS_P1;SDS_P2;PMS_P1;PMS_P2;Temp;Humidity;BMP_temperature;BMP_pressure;BME280_temperature;BME280_humidity;BME280_pressure;Samples;Min_cycle;Max_cycle;Signal;HPM_P1;HPM_P2
2022/03/01 00:00:39;;;;;;;18.90;10.37;;;;;;;1.41;69.86;103356.19;5033024;28;20613;-74
2022/03/01 00:03:05;;;;;;;17.67;10.03;;;;;;;1.44;70.67;103352.34;5013319;28;20701;-74
2022/03/01 00:05:31;;;;;;;20.37;11.20;;;;;;;1.34;70.20;103348.78;5012811;28;20424;-74
2022/03/01 00:07:56;;;;;;;20.27;10.43;;;;;;;1.35;70.24;103345.50;5036552;28;20193;-75
2022/03/01 00:10:22;;;;;;;19.30;10.73;;;;;;;1.31;70.94;103348.47;5049414;28;20269;-74
2022/03/01 00:12:47;;;;;;;19.10;10.27;;;;;;;1.38;70.55;103348.34;5050089;28;20209;-74
2022/03/01 00:15:12;;;;;;;19.93;11.23;;;;;;;1.38;69.67;103341.63;5013123;28;20205;-74
2022/03/01 00:17:38;;;;;;;19.63;10.83;;;;;;;1.33;70.34;103335.25;5025805;28;20681;-74
2022/03/01 00:20:04;;;;;;;21.23;11.30;;;;;;;1.32;69.81;103333.50;5029432;28;20677;-74
2022/03/01 00:22:30;;;;;;;18.07;10.13;;;;;;;1.31;70.19;103331.72;5048729;28;20208;-74
2022/03/01 00:24:55;;;;;;;18.83;11.03;;;;;;;1.35;70.40;103327.84;5031691;28;20456;-74
2022/03/01 00:27:21;;;;;;;19.90;10.90;;;;;;;1.28;70.43;103322.97;5013890;28;20187;-74
2022/03/01 00:29:46;;;;;;;19.87;10.23;;;;;;;1.24;69.88;103323.41;5046123;28;20229;-76
2022/03/01 00:32:11;;;;;;;22.73;10.27;;;;;;;1.18;70.36;103336.31;5013101;28;20209;-75
2022/03/01 00:34:37;;;;;;;17.83;9.97;;;;;;;1.28;69.65;103323.84;4996299;28;20193;-74
2022/03/01 00:37:03;;;;;;;18.07;9.70;;;;;;;1.31;69.88;103336.75;5030620;28;20197;-74
2022/03/01 00:39:29;;;;;;;20.17;10.00;;;;;;;1.26;69.39;103329.50;5016427;28;20273;-74
2022/03/01 00:41:54;;;;;;;21.17;10.40;;;;;;;1.25;69.39;103331.16;5030672;28;20296;-75
2022/03/01 00:44:19;;;;;;;18.37;9.73;;;;;;;1.22;70.41;103323.25;5044899;28;20201;-74
2022/03/01 00:46:45;;;;;;;19.27;9.97;;;;;;;1.21;69.20;103321.50;5030639;28;20182;-75
2022/03/01 00:49:10;;;;;;;19.50;10.67;;;;;;;1.24;70.02;103324.28;5017159;28;20680;-73
2022/03/01 00:51:36;;;;;;;18.97;9.80;;;;;;;1.34;68.73;103319.41;5049266;28;20241;-74
2022/03/01 00:54:01;;;;;;;18.77;9.47;;;;;;;1.24;68.95;103323.41;5038899;28;20202;-74
2022/03/01 00:56:30;;;;;;;18.50;10.10;;;;;;;1.18;69.53;103317.75;5040061;28;20685;-75
2022/03/01 00:58:56;;;;;;;19.83;10.13;;;;;;;1.21;69.17;103313.03;5032398;28;20931;-73
2022/03/01 01:01:21;;;;;;;20.23;10.80;;;;;;;1.15;69.06;103310.78;5040395;28;20546;-76
2022/03/01 01:03:47;;;;;;;19.13;10.57;;;;;;;1.13;70.21;103319.84;5049868;28;20188;-74
2022/03/01 01:06:12;;;;;;;17.83;9.70;;;;;;;1.05;70.63;103313.19;5042345;28;20182;-74
2022/03/01 01:08:37;;;;;;;21.17;10.87;;;;;;;1.07;69.62;103316.75;5030778;28;20198;-75
2022/03/01 01:11:03;;;;;;;19.20;9.90;;;;;;;1.01;70.25;103306.06;5037426;28;20186;-74
2022/03/01 01:13:30;;;;;;;16.47;9.80;;;;;;;0.97;70.74;103310.66;5040487;28;20197;-75
2022/03/01 01:15:55;;;;;;;19.83;10.43;;;;;;;0.95;70.31;103312.13;5016694;28;20289;-74
2022/03/01 01:18:21;;;;;;;22.57;10.77;;;;;;;0.93;70.17;103311.09;5034543;28;20527;-75
2022/03/01 01:20:46;;;;;;;20.80;10.27;;;;;;;0.88;70.66;103305.63;5028455;28;20194;-75
2022/03/01 01:23:11;;;;;;;18.93;10.27;;;;;;;0.92;70.31;103301.78;5014479;28;20218;-74
2022/03/01 01:25:37;;;;;;;17.73;10.03;;;;;;;0.91;70.39;103298.34;5035867;28;20197;-76
2022/03/01 01:28:02;;;;;;;18.30;10.67;;;;;;;0.84;70.28;103301.03;5036524;28;20185;-74
2022/03/01 01:30:32;;;;;;;18.37;10.33;;;;;;;0.84;70.71;103301.03;5048508;28;20551;-74
2022/03/01 01:32:57;;;;;;;19.87;11.17;;;;;;;0.88;70.92;103298.06;5045610;28;20243;-74
2022/03/01 01:35:25;;;;;;;18.37;10.80;;;;;;;0.83;70.01;103294.19;5036358;28;20478;-75
2022/03/01 01:37:52;;;;;;;17.70;10.50;;;;;;;0.85;70.14;103295.25;5015739;28;20186;-74
2022/03/01 01:40:20;;;;;;;22.67;10.37;;;;;;;0.82;70.07;103292.41;5031198;28;20444;-74
2022/03/01 01:42:46;;;;;;;21.63;10.50;;;;;;;0.77;70.33;103301.16;5037187;28;20464;-74
2022/03/01 01:45:12;;;;;;;20.03;10.40;;;;;;;0.87;70.46;103301.31;5040821;28;20449;-75
2022/03/01 01:47:37;;;;;;;20.27;11.00;;;;;;;0.73;70.04;103298.22;5049374;28;20186;-74
2022/03/01 01:50:05;;;;;;;20.70;10.80;;;;;;;0.65;71.23;103297.47;5033801;28;20309;-74
2022/03/01 01:52:30;;;;;;;24.27;10.83;;;;;;;0.48;72.28;103302.47;5036867;28;20464;-74
2022/03/01 01:54:56;;;;;;;21.63;11.23;;;;;;;0.40;71.83;103294.91;5022582;28;20440;-74
2022/03/01 01:57:23;;;;;;;18.80;10.53;;;;;;;0.23;73.25;103299.16;5035373;28;20186;-74
2022/03/01 01:59:51;;;;;;;22.07;10.37;;;;;;;0.19;73.01;103296.19;5035028;28;20201;-75
2022/03/01 02:02:20;;;;;;;18.07;9.37;;;;;;;0.07;73.59;103297.47;5050617;28;20467;-74
2022/03/01 02:04:45;;;;;;;21.77;10.67;;;;;;;0.06;73.68;103295.69;5039690;28;20447;-75
2022/03/01 02:07:12;;;;;;;21.23;10.87;;;;;;;-0.01;73.97;103296.72;5053142;28;20467;-74
2022/03/01 02:09:38;;;;;;;16.97;9.73;;;;;;;-0.06;73.99;103299.50;5039555;28;20253;-75
2022/03/01 02:12:04;;;;;;;19.10;10.50;;;;;;;-0.13;74.13;103297.97;5015167;28;20966;-74
2022/03/01 02:14:30;;;;;;;20.07;10.57;;;;;;;-0.13;74.72;103299.63;5015667;28;20252;-74
2022/03/01 02:16:56;;;;;;;18.10;10.00;;;;;;;-0.22;75.11;103297.06;5015693;28;20568;-74
2022/03/01 02:19:21;;;;;;;20.23;9.93;;;;;;;-0.22;75.38;103286.97;5015662;28;20437;-74
2022/03/01 02:21:54;;;;;;;19.60;10.70;;;;;;;-0.27;75.67;103295.69;5046354;28;20206;-74
2022/03/01 02:24:20;;;;;;;21.30;10.37;;;;;;;-0.27;75.51;103289.78;5018767;28;20225;-73
2022/03/01 02:26:45;;;;;;;18.53;9.83;;;;;;;-0.33;75.57;103282.50;5052649;28;20535;-74
2022/03/01 02:29:11;;;;;;;17.53;10.10;;;;;;;-0.34;75.70;103275.69;5052476;28;20625;-75
2022/03/01 02:31:37;;;;;;;20.67;10.70;;;;;;;-0.39;75.58;103289.44;5047420;28;20259;-74
2022/03/01 02:34:03;;;;;;;18.23;9.67;;;;;;;-0.43;76.43;103282.31;5037960;28;20251;-73
2022/03/01 02:36:28;;;;;;;18.37;9.97;;;;;;;-0.41;76.44;103285.00;5014772;28;20558;-74
2022/03/01 02:38:54;;;;;;;19.17;9.50;;;;;;;-0.38;76.19;103282.75;5032678;28;20183;-73
2022/03/01 02:41:19;;;;;;;22.57;10.67;;;;;;;-0.40;76.19;103281.72;5014670;28;20604;-74
2022/03/01 02:43:44;;;;;;;22.40;10.87;;;;;;;-0.33;76.10;103280.00;5014658;28;20725;-74
2022/03/01 02:46:10;;;;;;;20.77;10.03;;;;;;;-0.43;76.02;103276.38;5032252;28;20190;-75
2022/03/01 02:48:35;;;;;;;18.77;10.13;;;;;;;-0.40;76.14;103281.72;5032446;28;20830;-75
2022/03/01 02:51:00;;;;;;;19.00;10.20;;;;;;;-0.46;75.65;103276.09;5032226;28;20292;-74
2022/03/01 02:53:26;;;;;;;18.07;9.83;;;;;;;-0.50;75.93;103274.00;5031885;28;20344;-73
2022/03/01 02:55:51;;;;;;;20.17;10.30;;;;;;;-0.56;75.45;103276.75;5031795;28;20566;-75
2022/03/01 02:58:17;;;;;;;20.07;10.27;;;;;;;-0.66;75.83;103271.53;5031852;28;20285;-74
2022/03/01 03:00:48;;;;;;;19.23;10.13;;;;;;;-0.65;76.26;103273.31;5014110;28;20559;-74
2022/03/01 03:03:13;;;;;;;21.73;10.83;;;;;;;-0.55;76.37;103270.13;5039877;28;20202;-75
2022/03/01 03:05:39;;;;;;;20.57;10.47;;;;;;;-0.57;76.23;103267.44;5040321;28;20490;-74
2022/03/01 03:08:05;;;;;;;19.30;9.93;;;;;;;-0.61;75.43;103271.97;5014193;28;20245;-74
2022/03/01 03:10:32;;;;;;;19.70;9.90;;;;;;;-0.57;74.87;103276.59;5031649;28;20222;-75
2022/03/01 03:12:58;;;;;;;20.07;9.37;;;;;;;-0.62;75.35;103262.66;5031410;28;20219;-75
2022/03/01 03:15:23;;;;;;;18.30;10.30;;;;;;;-0.62;74.76;103257.63;4997339;28;20445;-74
2022/03/01 03:17:49;;;;;;;19.47;10.20;;;;;;;-0.62;74.87;103265.19;5014263;28;20245;-74
2022/03/01 03:20:14;;;;;;;19.07;9.67;;;;;;;-0.63;74.97;103265.91;5031914;28;20201;-74
2022/03/01 03:22:39;;;;;;;16.63;9.47;;;;;;;-0.65;75.18;103265.75;5031438;28;20221;-74
2022/03/01 03:25:06;;;;;;;18.23;9.57;;;;;;;-0.69;75.20;103267.81;5031140;28;20201;-74
2022/03/01 03:27:31;;;;;;;18.53;9.80;;;;;;;-0.75;75.52;103270.59;5031163;28;20189;-74
2022/03/01 03:29:57;;;;;;;19.27;10.00;;;;;;;-0.60;74.89;103263.69;5013786;28;20469;-75
2022/03/01 03:32:22;;;;;;;20.53;10.10;;;;;;;-0.68;75.23;103254.50;5031826;28;20194;-74
2022/03/01 03:34:47;;;;;;;19.30;9.00;;;;;;;-0.68;75.10;103259.53;5031647;28;20703;-74
2022/03/01 03:37:13;;;;;;;20.90;10.13;;;;;;;-0.63;75.45;103261.75;5014795;28;20701;-74
2022/03/01 03:39:38;;;;;;;19.70;9.93;;;;;;;-0.61;74.66;103251.84;5033564;28;20661;-73
2022/03/01 03:42:04;;;;;;;23.43;10.93;;;;;;;-0.64;74.79;103239.88;5019524;28;20297;-74
2022/03/01 03:44:29;;;;;;;20.60;10.37;;;;;;;-0.59;74.95;103233.69;5049494;28;20251;-74
2022/03/01 03:46:54;;;;;;;18.40;9.37;;;;;;;-0.58;74.65;103244.63;5049904;28;20208;-74
2022/03/01 03:49:22;;;;;;;18.83;10.70;;;;;;;-0.56;74.33;103245.66;5050571;28;20650;-74
2022/03/01 03:51:48;;;;;;;20.27;10.60;;;;;;;-0.61;73.53;103247.75;5038499;28;20733;-75
2022/03/01 03:54:13;;;;;;;19.77;10.33;;;;;;;-0.67;73.98;103241.19;5014631;28;20480;-74
2022/03/01 03:56:38;;;;;;;22.00;10.50;;;;;;;-0.63;74.28;103249.19;5012966;28;20214;-73
2022/03/01 03:59:07;;;;;;;18.83;10.33;;;;;;;-0.67;74.35;103239.56;5031347;28;20191;-74
2022/03/01 04:01:33;;;;;;;18.77;10.97;;;;;;;-0.56;74.34;103239.03;5030376;28;20728;-74
2022/03/01 04:04:00;;;;;;;19.43;9.63;;;;;;;-0.59;73.75;103237.84;5030849;28;20564;-74
2022/03/01 04:06:26;;;;;;;19.23;10.43;;;;;;;-0.61;73.72;103231.75;5017104;28;20431;-74
2022/03/01 04:08:51;;;;;;;21.37;10.97;;;;;;;-0.60;73.70;103234.41;5014860;28;20833;-74
2022/03/01 04:11:16;;;;;;;19.57;11.17;;;;;;;-0.61;73.80;103231.75;5034980;28;20627;-73
2022/03/01 04:13:42;;;;;;;19.33;10.77;;;;;;;-0.57;73.79;103223.78;5028856;28;20629;-74
2022/03/01 04:16:07;;;;;;;22.43;11.77;;;;;;;-0.60;73.57;103231.91;5030804;28;20556;-73
2022/03/01 04:18:32;;;;;;;20.67;10.33;;;;;;;-0.63;73.16;103235.75;5044062;28;20564;-75
2022/03/01 04:20:58;;;;;;;19.13;9.53;;;;;;;-0.61;73.13;103236.78;5030491;28;20567;-74
2022/03/01 04:23:23;;;;;;;20.77;10.27;;;;;;;-0.68;73.84;103254.50;5012618;28;20198;-75
2022/03/01 04:25:48;;;;;;;19.10;9.97;;;;;;;-0.74;73.68;103249.72;5030265;28;20650;-75
2022/03/01 04:28:14;;;;;;;18.70;9.87;;;;;;;-0.71;73.40;103247.53;5030538;28;20281;-74
2022/03/01 04:30:39;;;;;;;18.80;10.50;;;;;;;-0.73;73.75;103243.09;5038032;28;20685;-74
2022/03/01 04:33:05;;;;;;;21.47;10.83;;;;;;;-0.75;73.80;103242.91;5050135;28;20204;-75
2022/03/01 04:35:30;;;;;;;16.97;10.57;;;;;;;-0.79;74.47;103232.38;5031170;28;20193;-74
2022/03/01 04:37:56;;;;;;;21.03;10.50;;;;;;;-0.81;74.13;103241.41;5032072;28;20256;-74
2022/03/01 04:40:21;;;;;;;24.13;10.90;;;;;;;-0.81;74.34;103236.38;5046878;28;20186;-75
2022/03/01 04:42:46;;;;;;;21.17;11.13;;;;;;;-0.86;74.36;103224.97;5025776;28;20293;-74
2022/03/01 04:45:13;;;;;;;20.87;11.10;;;;;;;-0.87;74.63;103226.56;5017218;28;20198;-74
2022/03/01 04:47:39;;;;;;;24.17;12.13;;;;;;;-0.91;74.64;103223.59;5048778;28;20189;-74
2022/03/01 04:50:05;;;;;;;20.57;10.83;;;;;;;-0.92;75.34;103224.34;5029733;28;20460;-74
2022/03/01 04:52:31;;;;;;;21.63;10.70;;;;;;;-0.90;75.22;103212.81;5039347;28;21235;-74
2022/03/01 04:54:56;;;;;;;22.57;11.67;;;;;;;-0.92;75.25;103212.66;5033256;28;20454;-74
2022/03/01 04:57:21;;;;;;;24.43;10.77;;;;;;;-0.95;75.23;103219.00;5041586;28;20189;-75
2022/03/01 04:59:47;;;;;;;20.80;11.53;;;;;;;-0.97;75.47;103228.88;5029978;28;20190;-74
2022/03/01 05:02:12;;;;;;;22.63;11.33;;;;;;;-1.00;75.46;103227.69;5037596;28;20296;-75
2022/03/01 05:04:37;;;;;;;21.47;10.97;;;;;;;-0.99;75.75;103225.34;5000806;28;20201;-73
2022/03/01 05:07:03;;;;;;;20.17;10.80;;;;;;;-1.02;75.65;103217.47;5042524;28;20195;-74
2022/03/01 05:09:29;;;;;;;21.13;11.27;;;;;;;-0.98;75.77;103214.53;5021527;28;20275;-75
2022/03/01 05:11:54;;;;;;;23.43;12.00;;;;;;;-1.03;76.15;103217.31;5038122;28;20207;-74
2022/03/01 05:14:19;;;;;;;25.33;11.60;;;;;;;-1.04;76.24;103215.53;5011613;28;20186;-74
2022/03/01 05:16:46;;;;;;;20.27;11.00;;;;;;;-1.04;76.22;103208.91;5046337;28;20177;-74
2022/03/01 05:19:12;;;;;;;21.17;11.10;;;;;;;-1.11;76.54;103211.50;5049082;28;20201;-74
2022/03/01 05:21:38;;;;;;;21.23;11.50;;;;;;;-1.14;76.95;103206.13;5019468;28;20976;-75
2022/03/01 05:24:04;;;;;;;21.70;11.33;;;;;;;-1.16;76.42;103210.13;5029291;28;20483;-73
2022/03/01 05:26:30;;;;;;;19.40;10.60;;;;;;;-1.17;76.97;103209.97;5000646;28;20191;-73
2022/03/01 05:28:56;;;;;;;20.90;11.57;;;;;;;-1.22;76.92;103219.56;5029222;28;20444;-74
2022/03/01 05:31:21;;;;;;;24.93;12.03;;;;;;;-1.23;76.80;103222.78;5015924;28;20194;-74
2022/03/01 05:33:47;;;;;;;20.23;11.50;;;;;;;-1.27;76.94;103224.81;5011568;28;20829;-74
2022/03/01 05:36:13;;;;;;;23.20;11.97;;;;;;;-1.32;77.37;103216.78;5029147;28;20670;-73
2022/03/01 05:38:39;;;;;;;21.90;12.23;;;;;;;-1.29;77.17;103212.09;5029510;28;20183;-74
2022/03/01 05:41:04;;;;;;;19.60;11.37;;;;;;;-1.25;77.27;103215.81;5032851;28;20557;-73
2022/03/01 05:43:34;;;;;;;22.53;11.60;;;;;;;-1.27;77.03;103222.31;5029365;28;20190;-74
2022/03/01 05:45:59;;;;;;;22.77;11.57;;;;;;;-1.30;77.16;103229.50;5029100;28;20277;-74
2022/03/01 05:48:26;;;;;;;23.60;11.60;;;;;;;-1.32;77.81;103231.00;5029195;28;20532;-73
2022/03/01 05:50:51;;;;;;;22.83;11.43;;;;;;;-1.31;77.06;103231.16;5029494;28;20214;-75
2022/03/01 05:53:17;;;;;;;21.87;11.30;;;;;;;-1.32;77.43;103229.34;5029038;28;20475;-74
2022/03/01 05:55:42;;;;;;;21.77;11.97;;;;;;;-1.33;77.38;103236.75;5028861;28;20273;-74
2022/03/01 05:58:07;;;;;;;23.83;12.67;;;;;;;-1.32;77.71;103223.47;5029425;28;20669;-74
2022/03/01 06:00:33;;;;;;;23.57;11.70;;;;;;;-1.28;77.75;103218.03;5011510;28;20567;-73
2022/03/01 06:02:58;;;;;;;21.17;11.57;;;;;;;-1.24;77.97;103222.63;5011415;28;20689;-74
2022/03/01 06:05:24;;;;;;;22.20;11.33;;;;;;;-1.30;78.22;103217.84;5029008;28;20201;-73
2022/03/01 06:07:49;;;;;;;24.07;11.93;;;;;;;-1.32;77.90;103215.91;5029096;28;20532;-74
2022/03/01 06:10:15;;;;;;;23.73;11.67;;;;;;;-1.31;77.97;103217.69;5031881;28;20707;-73
2022/03/01 06:12:41;;;;;;;23.50;12.13;;;;;;;-1.30;78.02;103227.00;5014877;28;20210;-74
2022/03/01 06:15:09;;;;;;;23.00;11.83;;;;;;;-1.30;77.86;103216.94;5014766;28;20229;-75
2022/03/01 06:17:34;;;;;;;25.70;12.53;;;;;;;-1.26;77.72;103222.47;5032656;28;20516;-74
2022/03/01 06:20:01;;;;;;;22.30;12.27;;;;;;;-1.22;77.23;103234.63;5014801;28;20854;-74
2022/03/01 06:22:27;;;;;;;22.00;11.87;;;;;;;-1.21;76.92;103227.97;5032415;28;20464;-73
2022/03/01 06:24:54;;;;;;;25.63;12.37;;;;;;;-1.17;77.72;103230.06;5019839;28;20440;-74
2022/03/01 06:27:20;;;;;;;23.50;12.60;;;;;;;-1.19;77.99;103234.94;5023054;28;20610;-75
2022/03/01 06:29:45;;;;;;;25.57;12.50;;;;;;;-1.15;77.39;103234.50;5034254;28;20506;-74
2022/03/01 06:32:11;;;;;;;21.10;11.97;;;;;;;-1.16;77.43;103232.75;5042443;28;20234;-73
2022/03/01 06:34:36;;;;;;;23.40;12.17;;;;;;;-1.15;77.96;103231.13;5043880;28;20232;-73
2022/03/01 06:37:01;;;;;;;24.87;12.73;;;;;;;-1.06;77.26;103224.53;5048169;28;20190;-74
2022/03/01 06:39:27;;;;;;;26.73;13.43;;;;;;;-1.06;77.39;103214.50;5031758;28;20558;-73
2022/03/01 06:41:52;;;;;;;25.40;12.33;;;;;;;-1.04;77.25;103220.56;5031847;28;20316;-74
2022/03/01 06:44:18;;;;;;;25.03;12.87;;;;;;;-1.02;77.41;103222.50;5031874;28;20341;-74
2022/03/01 06:46:44;;;;;;;23.70;13.07;;;;;;;-0.98;77.18;103223.69;5015212;28;20243;-76
2022/03/01 06:49:09;;;;;;;23.77;13.07;;;;;;;-0.94;77.05;103230.81;5050799;28;20699;-75
2022/03/01 06:51:35;;;;;;;22.13;13.03;;;;;;;-0.88;77.26;103223.91;5051388;28;20661;-74
2022/03/01 06:54:00;;;;;;;25.00;13.00;;;;;;;-0.77;77.25;103229.28;5013379;28;20224;-73
2022/03/01 06:56:26;;;;;;;25.83;14.03;;;;;;;-0.75;77.22;103226.94;5023230;28;20198;-73
2022/03/01 06:58:53;;;;;;;21.30;11.50;;;;;;;-0.75;76.39;103231.97;5047240;28;20194;-73
2022/03/01 07:01:19;;;;;;;24.57;12.43;;;;;;;-0.71;76.56;103236.56;5051221;28;20505;-75
2022/03/01 07:03:45;;;;;;;23.03;12.63;;;;;;;-0.64;76.25;103229.81;5037057;28;20936;-74
2022/03/01 07:06:11;;;;;;;21.77;13.33;;;;;;;-0.54;75.87;103226.63;5025304;28;20443;-74
2022/03/01 07:08:36;;;;;;;25.07;12.73;;;;;;;-0.47;75.61;103217.31;5033497;28;20606;-76
2022/03/01 07:11:01;;;;;;;23.53;12.00;;;;;;;-0.42;75.66;103220.28;5034844;28;20396;-75
2022/03/01 07:13:27;;;;;;;26.37;12.77;;;;;;;-0.29;75.21;103214.13;5036999;28;20213;-74
2022/03/01 07:15:52;;;;;;;25.17;13.70;;;;;;;-0.18;75.32;103216.09;5027914;28;20711;-74
2022/03/01 07:18:17;;;;;;;25.53;14.10;;;;;;;-0.09;74.56;103208.59;5041307;28;20194;-75
2022/03/01 07:20:43;;;;;;;23.47;13.40;;;;;;;-0.02;74.78;103210.94;5020153;28;20217;-76
2022/03/01 07:23:10;;;;;;;21.00;13.00;;;;;;;0.14;74.42;103215.13;5022664;28;20210;-75
2022/03/01 07:25:36;;;;;;;24.27;12.83;;;;;;;0.26;73.23;103215.44;5020363;28;20677;-75
2022/03/01 07:28:02;;;;;;;23.43;12.67;;;;;;;0.29;72.84;103215.75;5024711;28;20459;-75
2022/03/01 07:30:28;;;;;;;25.27;14.10;;;;;;;0.55;72.60;103220.81;5052047;28;21262;-75
2022/03/01 07:32:56;;;;;;;25.80;14.60;;;;;;;0.57;72.41;103222.75;5001669;28;20511;-75
2022/03/01 07:35:22;;;;;;;24.77;13.87;;;;;;;0.72;71.75;103211.59;5033920;28;20301;-74
2022/03/01 07:37:48;;;;;;;25.03;14.57;;;;;;;0.89;72.04;103213.22;5033226;28;20460;-74
2022/03/01 07:40:17;;;;;;;23.83;14.07;;;;;;;1.10;70.31;103203.53;5015248;28;20708;-75
2022/03/01 07:42:43;;;;;;;24.40;13.60;;;;;;;1.31;70.01;103192.94;5030549;28;20256;-74
2022/03/01 07:45:10;;;;;;;23.67;12.80;;;;;;;1.27;69.31;103192.50;5030797;28;20440;-76
2022/03/01 07:47:35;;;;;;;23.60;12.90;;;;;;;1.38;68.91;103190.22;5012606;28;20544;-74
2022/03/01 07:50:00;;;;;;;21.33;12.67;;;;;;;1.34;68.29;103202.44;5014036;28;20580;-74
2022/03/01 07:52:26;;;;;;;23.73;13.50;;;;;;;1.90;68.30;103199.38;5013101;28;20246;-74
2022/03/01 07:54:51;;;;;;;21.97;12.73;;;;;;;2.11;68.55;103198.78;5022946;28;20249;-74
2022/03/01 07:57:17;;;;;;;23.23;13.17;;;;;;;2.05;67.25;103203.28;5013796;28;20217;-74
2022/03/01 07:59:42;;;;;;;22.30;12.97;;;;;;;2.05;67.16;103203.28;5031197;28;20221;-73
2022/03/01 08:02:08;;;;;;;22.43;12.13;;;;;;;2.41;65.92;103200.66;5030867;28;20301;-75
2022/03/01 08:04:33;;;;;;;20.40;12.63;;;;;;;2.66;64.77;103197.91;5030577;28;20197;-74
2022/03/01 08:06:59;;;;;;;22.67;13.47;;;;;;;2.75;64.73;103196.19;5004298;28;20209;-74
2022/03/01 08:09:24;;;;;;;25.13;13.43;;;;;;;2.84;64.28;103194.47;5049902;28;20235;-74
2022/03/01 08:11:49;;;;;;;21.43;12.77;;;;;;;2.92;63.23;103185.91;5050106;28;20880;-73
2022/03/01 08:14:15;;;;;;;23.23;13.73;;;;;;;2.92;64.99;103188.44;5049994;28;20260;-74
2022/03/01 08:16:41;;;;;;;21.27;12.80;;;;;;;3.02;65.39;103202.75;5049885;28;20251;-74
2022/03/01 08:19:06;;;;;;;22.70;13.63;;;;;;;2.87;64.80;103203.97;5015559;28;20194;-74
2022/03/01 08:21:32;;;;;;;25.03;13.97;;;;;;;2.85;65.33;103197.91;5049809;28;20584;-73
2022/03/01 08:23:57;;;;;;;24.47;14.13;;;;;;;2.96;64.48;103202.25;5015751;28;20235;-75
2022/03/01 08:26:22;;;;;;;21.93;12.97;;;;;;;2.75;64.90;103205.44;5050375;28;20182;-73
2022/03/01 08:28:48;;;;;;;27.07;13.63;;;;;;;2.46;65.05;103217.09;5032119;28;20208;-72
2022/03/01 08:31:13;;;;;;;23.03;13.40;;;;;;;2.78;63.98;103208.22;5049743;28;20212;-73
2022/03/01 08:33:39;;;;;;;24.60;13.17;;;;;;;3.31;62.68;103212.13;5050454;28;20194;-74
2022/03/01 08:36:05;;;;;;;23.77;13.87;;;;;;;3.71;61.20;103212.25;5028646;28;20198;-73
2022/03/01 08:38:31;;;;;;;25.00;14.07;;;;;;;3.97;59.94;103196.69;5029738;28;20240;-73
2022/03/01 08:40:56;;;;;;;24.77;14.00;;;;;;;4.14;59.25;103194.78;5028433;28;20261;-74
2022/03/01 08:43:22;;;;;;;23.60;13.73;;;;;;;4.28;58.18;103188.31;5014593;28;20218;-72
2022/03/01 08:45:48;;;;;;;22.50;12.93;;;;;;;4.78;58.33;103173.88;5029342;28;20193;-74
2022/03/01 08:48:13;;;;;;;24.03;14.07;;;;;;;4.96;56.91;103169.34;5029542;28;20235;-74
2022/03/01 08:50:39;;;;;;;23.13;13.40;;;;;;;5.38;55.13;103162.56;5028720;28;20325;-74
2022/03/01 08:53:05;;;;;;;22.77;13.77;;;;;;;5.15;55.99;103158.22;5030439;28;20206;-73
2022/03/01 08:55:31;;;;;;;20.20;12.87;;;;;;;5.60;57.32;103155.81;5021235;28;20324;-73
2022/03/01 08:57:57;;;;;;;21.73;13.50;;;;;;;6.07;54.55;103157.75;5029233;28;20201;-71
2022/03/01 09:00:23;;;;;;;20.53;13.53;;;;;;;5.94;54.76;103163.59;5041833;28;20197;-72
2022/03/01 09:02:48;;;;;;;21.33;13.20;;;;;;;6.29;55.19;103161.13;5044107;28;20268;-72
2022/03/01 09:05:13;;;;;;;21.20;13.07;;;;;;;5.97;52.16;103155.31;5047724;28;20576;-71
2022/03/01 09:07:39;;;;;;;20.70;13.10;;;;;;;5.88;55.46;103163.13;5048920;28;20560;-71
2022/03/01 09:10:06;;;;;;;20.37;12.80;;;;;;;6.13;55.75;103159.09;5048987;28;20201;-72
2022/03/01 09:12:31;;;;;;;22.00;12.87;;;;;;;5.79;53.85;103149.69;5048628;28;20206;-74
2022/03/01 09:14:57;;;;;;;20.00;12.87;;;;;;;5.63;53.79;103151.88;5031201;28;20212;-74
2022/03/01 09:17:23;;;;;;;18.83;12.67;;;;;;;5.86;53.81;103138.38;5048924;28;20285;-73
2022/03/01 09:19:48;;;;;;;20.60;12.63;;;;;;;5.97;52.51;103145.13;5049045;28;20174;-74
2022/03/01 09:22:13;;;;;;;20.93;13.37;;;;;;;6.63;51.19;103135.69;5031245;28;20568;-74
2022/03/01 09:24:39;;;;;;;22.07;13.00;;;;;;;6.14;51.71;103132.03;5031207;28;20634;-74
2022/03/01 09:27:06;;;;;;;21.13;13.40;;;;;;;6.74;50.47;103127.16;5042647;28;20186;-74
2022/03/01 09:29:32;;;;;;;20.40;12.23;;;;;;;7.59;48.44;103123.78;5029508;28;20229;-76
2022/03/01 09:31:58;;;;;;;20.60;12.57;;;;;;;8.42;46.55;103113.31;5011499;28;20214;-77
2022/03/01 09:34:24;;;;;;;21.37;13.00;;;;;;;7.66;46.14;103126.91;5029310;28;20185;-73
2022/03/01 09:36:50;;;;;;;21.07;13.13;;;;;;;8.09;47.08;103115.31;5033536;28;20231;-73
2022/03/01 09:39:15;;;;;;;20.50;13.07;;;;;;;11.28;40.69;103111.69;5031156;28;20582;-73
2022/03/01 09:41:41;;;;;;;19.27;13.40;;;;;;;11.47;40.18;103106.72;5031092;28;20220;-73
2022/03/01 09:44:08;;;;;;;21.00;13.30;;;;;;;9.73;42.33;103113.88;5032308;28;20236;-75
2022/03/01 09:46:34;;;;;;;21.10;13.40;;;;;;;10.21;41.41;103107.41;5052668;28;20186;-74
2022/03/01 09:48:59;;;;;;;21.33;13.50;;;;;;;11.01;39.62;103115.34;5052429;28;20702;-74
2022/03/01 09:51:26;;;;;;;20.37;12.93;;;;;;;13.53;35.15;103106.53;5052487;28;20239;-74
2022/03/01 09:53:53;;;;;;;19.70;14.50;;;;;;;12.51;36.33;103112.00;5052550;28;20200;-74
2022/03/01 09:56:19;;;;;;;20.57;13.33;;;;;;;14.58;32.97;103099.81;5043223;28;20316;-75
2022/03/01 09:58:49;;;;;;;17.87;13.20;;;;;;;12.57;36.41;103108.06;5052636;28;20276;-73
2022/03/01 10:01:16;;;;;;;21.00;14.00;;;;;;;13.64;35.00;103109.56;5034333;28;20194;-74
2022/03/01 10:03:51;;;;;;;19.53;13.93;;;;;;;11.81;36.78;103111.94;5052325;28;20600;-73
2022/03/01 10:06:24;;;;;;;20.13;12.90;;;;;;;12.43;36.99;103113.31;5052280;28;20704;-75
2022/03/01 10:08:54;;;;;;;18.50;13.50;;;;;;;12.29;37.03;103115.25;5052375;28;20228;-75
2022/03/01 10:11:21;;;;;;;22.20;13.97;;;;;;;11.76;37.90;103113.38;5033993;28;20197;-75
2022/03/01 10:13:46;;;;;;;20.13;13.47;;;;;;;13.35;35.43;103104.84;5052226;28;20671;-74
2022/03/01 10:16:17;;;;;;;18.70;13.00;;;;;;;13.80;34.14;103104.25;5034262;28;20190;-75
2022/03/01 10:18:52;;;;;;;18.77;14.20;;;;;;;14.40;34.01;103106.81;5034604;28;20194;-75
2022/03/01 10:21:19;;;;;;;20.03;14.30;;;;;;;15.39;31.13;103103.88;5033685;28;20283;-76
2022/03/01 10:23:56;;;;;;;20.13;13.43;;;;;;;14.24;33.02;103101.88;5034757;28;20185;-75
2022/03/01 10:26:29;;;;;;;18.67;13.27;;;;;;;13.97;34.27;103113.56;5052056;28;20271;-77
2022/03/01 10:28:58;;;;;;;19.10;13.77;;;;;;;14.83;32.53;103095.66;5052515;28;20186;-75
2022/03/01 10:31:31;;;;;;;20.13;14.37;;;;;;;15.74;31.37;103092.19;5052506;28;20327;-76
2022/03/01 10:34:02;;;;;;;20.17;13.47;;;;;;;14.55;33.23;103103.16;5034422;28;20247;-75
2022/03/01 10:36:29;;;;;;;20.70;13.93;;;;;;;14.53;33.09;103097.06;5034489;28;20174;-75
2022/03/01 10:39:08;;;;;;;17.77;13.87;;;;;;;12.48;35.11;103110.19;5052519;28;20190;-75
2022/03/01 10:41:37;;;;;;;19.43;13.00;;;;;;;12.58;35.65;103109.81;5052334;28;20231;-75
2022/03/01 10:44:03;;;;;;;19.73;13.43;;;;;;;12.21;36.64;103108.84;5034593;28;20221;-77
2022/03/01 10:46:36;;;;;;;21.10;14.57;;;;;;;10.93;38.98;103110.59;5052933;28;20197;-75
2022/03/01 10:49:05;;;;;;;18.40;13.87;;;;;;;12.44;37.44;103109.97;5010998;28;20238;-76
2022/03/01 10:51:32;;;;;;;21.93;13.87;;;;;;;12.68;36.68;103111.13;5031263;28;20293;-73
2022/03/01 10:54:00;;;;;;;16.87;12.40;;;;;;;10.91;39.17;103127.56;5013880;28;20193;-73
2022/03/01 10:56:35;;;;;;;19.57;13.00;;;;;;;10.55;40.48;103136.66;5033257;28;20179;-73
2022/03/01 10:59:02;;;;;;;21.57;13.27;;;;;;;10.51;41.15;103128.75;5051437;28;20178;-74
2022/03/01 11:01:27;;;;;;;20.63;12.57;;;;;;;11.44;38.42;103127.09;5050501;28;20213;-74
2022/03/01 11:03:53;;;;;;;22.17;13.00;;;;;;;11.62;37.40;103117.78;5051332;28;20556;-74
2022/03/01 11:06:19;;;;;;;21.37;13.23;;;;;;;11.85;37.85;103127.53;5047963;28;20183;-75
2022/03/01 11:08:45;;;;;;;21.07;13.10;;;;;;;11.16;38.43;103121.28;5031503;28;20186;-72